Time;durP1;ratioP1;P1;durP2;ratioP2;P2;SDS_P1;SDS_P2;PMS_P1;PMS_P2;Temp;Humidity;BMP_temperature;BMP_pressure;BME280_temperature;BME280_humidity;BME280_pressure;Samples;Min_cycle;Max_cycle;Signal;HPM_P1;HPM_P2
2023/07/24 00:00:30;;;;;;;7.60;2.20;;;;;;;18.77;100.00;99577.53;4964535;28;20220;-81
2023/07/24 00:02:57;;;;;;;12.75;3.17;;;;;;;18.94;100.00;99591.16;4961919;28;20229;-81
2023/07/24 00:05:24;;;;;;;8.00;2.25;;;;;;;19.02;100.00;99578.34;4967485;28;20673;-81
2023/07/24 00:07:50;;;;;;;15.50;3.65;;;;;;;18.97;100.00;99583.00;4945401;28;20267;-81
2023/07/24 00:10:17;;;;;;;11.10;3.05;;;;;;;19.06;100.00;99593.38;4962379;28;20235;-81
2023/07/24 00:12:44;;;;;;;7.55;2.25;;;;;;;18.83;100.00;99578.19;4957770;28;20233;-81
2023/07/24 00:15:11;;;;;;;9.68;2.63;;;;;;;18.94;100.00;99590.28;4962849;28;20252;-80
2023/07/24 00:17:38;;;;;;;7.72;2.10;;;;;;;18.95;100.00;99592.91;4963566;28;20261;-81
2023/07/24 00:20:06;;;;;;;9.93;2.80;;;;;;;18.85;100.00;99580.78;4964816;28;20343;-81
2023/07/24 00:22:33;;;;;;;8.30;2.28;;;;;;;18.69;100.00;99585.88;4965335;28;20245;-81
2023/07/24 00:25:00;;;;;;;12.88;3.42;;;;;;;18.67;100.00;99609.16;4968540;28;20680;-80
2023/07/24 00:27:27;;;;;;;8.25;2.30;;;;;;;18.55;100.00;99601.53;4949777;28;20232;-81
2023/07/24 00:29:54;;;;;;;16.33;4.40;;;;;;;18.66;100.00;99622.59;4959648;28;20221;-81
2023/07/24 00:32:20;;;;;;;9.20;2.65;;;;;;;18.62;100.00;99615.59;4964891;28;20244;-80
2023/07/24 00:34:47;;;;;;;9.48;2.88;;;;;;;18.69;100.00;99625.16;4970624;28;20247;-80
2023/07/24 00:37:14;;;;;;;8.70;2.28;;;;;;;18.59;100.00;99613.00;4971092;28;20235;-80
2023/07/24 00:39:41;;;;;;;7.90;2.20;;;;;;;18.45;100.00;99619.75;4967363;28;20300;-81
2023/07/24 00:42:07;;;;;;;6.97;2.10;;;;;;;18.61;100.00;99633.47;4963059;28;20332;-81
2023/07/24 00:44:34;;;;;;;13.93;3.58;;;;;;;18.68;100.00;99634.13;4964393;28;20263;-81
2023/07/24 00:47:01;;;;;;;16.20;4.07;;;;;;;18.74;100.00;99634.78;4960998;28;20235;-80
2023/07/24 00:49:28;;;;;;;9.52;2.72;;;;;;;18.84;100.00;99636.19;4953532;28;20240;-81
2023/07/24 00:51:55;;;;;;;19.58;5.20;;;;;;;18.72;100.00;99625.91;4931280;28;20713;-81
2023/07/24 00:54:22;;;;;;;10.23;2.90;;;;;;;18.72;100.00;99625.03;4967339;28;20236;-81
2023/07/24 00:56:49;;;;;;;12.27;3.22;;;;;;;18.83;100.00;99630.88;4951500;28;20240;-80
2023/07/24 00:59:16;;;;;;;10.50;2.95;;;;;;;18.91;100.00;99628.78;4965063;28;20229;-81
2023/07/24 01:01:42;;;;;;;11.77;3.20;;;;;;;18.84;100.00;99636.19;4945441;28;20225;-81
2023/07/24 01:04:09;;;;;;;10.23;3.33;;;;;;;18.74;100.00;99633.91;4950806;28;20233;-81
2023/07/24 01:06:36;;;;;;;11.50;3.10;;;;;;;18.79;100.00;99635.47;4969817;28;20238;-81
2023/07/24 01:09:02;;;;;;;15.80;4.20;;;;;;;18.80;100.00;99639.91;4963565;28;20232;-81
2023/07/24 01:11:33;;;;;;;8.48;3.13;;;;;;;18.77;100.00;99634.66;4968824;28;20233;-81
2023/07/24 01:14:26;;;;;;;17.60;4.28;;;;;;;18.76;100.00;99642.75;4957161;28;20674;-81
2023/07/24 01:16:55;;;;;;;17.77;4.22;;;;;;;18.70;100.00;99641.16;4940660;28;20236;-81
2023/07/24 01:19:42;;;;;;;7.28;2.05;;;;;;;18.35;100.00;99634.38;4968422;28;20244;-81
2023/07/24 01:22:29;;;;;;;9.07;2.40;;;;;;;18.31;100.00;99646.13;4966313;28;20241;-81
2023/07/24 01:25:13;;;;;;;12.38;3.38;;;;;;;18.47;100.00;99663.38;4959929;28;20240;-81
2023/07/24 01:27:42;;;;;;;10.82;2.88;;;;;;;18.45;100.00;99648.31;4961276;28;20232;-81
2023/07/24 01:30:16;;;;;;;11.50;3.00;;;;;;;18.50;100.00;99649.03;4961113;28;20233;-81
2023/07/24 01:32:43;;;;;;;12.93;3.30;;;;;;;18.36;100.00;99654.00;4964959;28;20666;-81
2023/07/24 01:35:11;;;;;;;10.85;2.72;;;;;;;18.42;100.00;99645.75;4967622;28;20240;-80
2023/07/24 01:37:40;;;;;;;13.80;3.53;;;;;;;18.51;100.00;99653.44;4943916;28;20237;-81
2023/07/24 01:40:10;;;;;;;8.43;2.38;;;;;;;18.55;100.00;99649.72;4941810;28;20328;-79
2023/07/24 01:42:37;;;;;;;11.30;3.10;;;;;;;18.51;100.00;99637.38;4943471;28;20244;-81
2023/07/24 01:45:04;;;;;;;33.15;6.88;;;;;;;18.47;100.00;99644.66;4943273;28;20240;-80
2023/07/24 01:47:32;;;;;;;7.05;2.10;;;;;;;18.41;100.00;99666.28;4979320;23;20244;-78
2023/07/24 01:49:58;;;;;;;17.45;4.82;;;;;;;18.37;100.00;99663.78;4967755;28;20712;-79
2023/07/24 01:52:26;;;;;;;13.90;3.67;;;;;;;18.21;100.00;99656.28;4958576;28;20287;-76
2023/07/24 01:54:53;;;;;;;19.38;4.65;;;;;;;18.18;100.00;99656.34;4953981;28;20231;-78
2023/07/24 01:57:19;;;;;;;14.65;4.05;;;;;;;18.16;100.00;99663.56;4928938;28;20248;-78
2023/07/24 01:59:46;;;;;;;7.53;2.30;;;;;;;18.18;100.00;99671.53;4947028;28;20233;-78
2023/07/24 02:02:13;;;;;;;10.95;3.13;;;;;;;18.14;100.00;99668.09;4956046;28;20248;-75
2023/07/24 02:04:40;;;;;;;11.90;3.35;;;;;;;18.22;100.00;99660.69;4961502;28;20697;-76
2023/07/24 02:07:06;;;;;;;8.77;2.55;;;;;;;18.21;100.00;99666.97;4950963;28;20242;-76
2023/07/24 02:09:33;;;;;;;9.00;2.63;;;;;;;18.17;100.00;99678.69;4944021;28;20240;-76
2023/07/24 02:12:01;;;;;;;25.23;5.70;;;;;;;18.18;100.00;99674.19;4938858;28;20240;-75
2023/07/24 02:14:28;;;;;;;12.68;3.58;;;;;;;18.20;100.00;99675.94;4963685;28;20237;-76
2023/07/24 02:16:55;;;;;;;20.10;5.40;;;;;;;18.10;100.00;99670.91;4954761;28;20241;-76
2023/07/24 02:19:21;;;;;;;12.82;3.50;;;;;;;18.14;100.00;99659.19;4956309;28;20613;-76
2023/07/24 02:21:48;;;;;;;16.63;4.78;;;;;;;18.20;100.00;99662.56;4948991;28;20241;-75
2023/07/24 02:24:14;;;;;;;18.48;4.97;;;;;;;18.18;100.00;99664.38;4960214;28;20233;-77
2023/07/24 02:26:41;;;;;;;16.20;4.55;;;;;;;18.19;100.00;99676.81;4959727;28;20224;-77
2023/07/24 02:29:08;;;;;;;12.48;3.28;;;;;;;18.09;100.00;99672.72;4951475;28;20233;-77
2023/07/24 02:31:35;;;;;;;9.80;2.67;;;;;;;17.94;100.00;99661.66;4960944;28;20237;-79
2023/07/24 02:34:01;;;;;;;21.25;5.50;;;;;;;17.90;100.00;99656.41;4954009;28;20253;-77
2023/07/24 02:36:28;;;;;;;13.27;3.47;;;;;;;17.94;100.00;99667.88;4957170;28;20235;-77
2023/07/24 02:38:56;;;;;;;15.80;3.95;;;;;;;17.92;100.00;99653.69;4953781;28;20705;-76
2023/07/24 02:41:23;;;;;;;8.57;2.33;;;;;;;17.91;100.00;99663.50;4960543;28;20228;-82
2023/07/24 02:43:49;;;;;;;12.35;3.30;;;;;;;17.83;100.00;99662.88;4956604;28;20701;-77
2023/07/24 02:46:16;;;;;;;12.98;3.30;;;;;;;17.86;100.00;99654.75;4958072;28;20234;-79
2023/07/24 02:48:43;;;;;;;10.95;2.97;;;;;;;17.80;100.00;99657.63;4954995;28;20229;-77
2023/07/24 02:51:10;;;;;;;9.88;2.67;;;;;;;17.65;100.00;99668.78;4950359;28;20236;-77
2023/07/24 02:53:37;;;;;;;10.18;2.75;;;;;;;17.73;100.00;99681.94;4954926;28;20275;-82
2023/07/24 02:56:04;;;;;;;50.03;9.32;;;;;;;17.82;100.00;99695.03;4948600;28;20232;-82
2023/07/24 02:58:30;;;;;;;11.15;3.17;;;;;;;17.87;100.00;99691.28;4938584;28;20240;-75
2023/07/24 03:01:07;;;;;;;32.85;6.63;;;;;;;17.84;100.00;99669.09;4937430;28;20287;-77
2023/07/24 03:03:34;;;;;;;10.57;3.03;;;;;;;17.86;100.00;99678.84;4952471;28;20224;-77
2023/07/24 03:06:01;;;;;;;39.75;8.02;;;;;;;17.93;100.00;99679.50;4948301;28;20237;-78
2023/07/24 03:08:28;;;;;;;12.35;4.63;;;;;;;17.94;100.00;99675.91;4951362;28;20237;-78
2023/07/24 03:10:55;;;;;;;21.30;5.30;;;;;;;17.93;100.00;99660.78;4918388;28;20230;-77
2023/07/24 03:13:22;;;;;;;9.50;2.78;;;;;;;17.95;100.00;99666.94;4951883;28;20324;-75
2023/07/24 03:15:56;;;;;;;23.13;5.00;;;;;;;17.94;100.00;99670.56;4928656;28;20234;-76
2023/07/24 03:18:23;;;;;;;12.25;3.25;;;;;;;17.97;100.00;99669.56;4935819;28;20239;-75
2023/07/24 03:20:50;;;;;;;17.73;4.68;;;;;;;17.97;100.00;99667.78;4949886;28;20227;-76
2023/07/24 03:23:18;;;;;;;10.18;2.83;;;;;;;17.97;100.00;99670.44;4962244;28;20237;-76
2023/07/24 03:25:44;;;;;;;9.95;2.85;;;;;;;18.04;100.00;99655.94;4959757;28;20244;-76
2023/07/24 03:28:11;;;;;;;13.32;3.63;;;;;;;17.99;100.00;99686.44;4955384;28;20232;-76
2023/07/24 03:30:38;;;;;;;11.75;3.15;;;;;;;17.82;100.00;99695.03;4956712;28;20236;-76
2023/07/24 03:33:06;;;;;;;11.63;3.33;;;;;;;17.81;100.00;99702.19;4951255;28;20235;-76
2023/07/24 03:35:32;;;;;;;9.25;2.72;;;;;;;17.84;100.00;99690.50;4943615;28;20229;-76
2023/07/24 03:37:59;;;;;;;18.25;4.72;;;;;;;17.89;100.00;99684.09;4954959;28;20596;-76
2023/07/24 03:40:26;;;;;;;7.97;2.40;;;;;;;17.90;100.00;99680.47;4956508;28;20217;-75
2023/07/24 03:42:53;;;;;;;11.70;2.95;;;;;;;17.87;100.00;99680.59;4935955;28;20229;-75
2023/07/24 03:45:20;;;;;;;9.38;2.85;;;;;;;17.74;100.00;99673.88;4960020;28;20251;-76
2023/07/24 03:47:47;;;;;;;12.43;3.53;;;;;;;17.72;100.00;99682.88;4954483;28;20311;-76
2023/07/24 03:50:14;;;;;;;10.23;2.83;;;;;;;17.76;100.00;99703.25;4954280;28;20300;-77
2023/07/24 03:52:40;;;;;;;12.25;3.47;;;;;;;17.71;100.00;99692.69;4957662;28;20603;-76
2023/07/24 03:55:07;;;;;;;12.18;3.33;;;;;;;17.73;100.00;99672.13;4952246;28;20686;-76
2023/07/24 03:57:34;;;;;;;10.60;3.13;;;;;;;17.72;100.00;99678.41;4958755;28;20768;-76
2023/07/24 04:00:02;;;;;;;15.00;3.78;;;;;;;17.68;100.00;99681.22;4952705;28;20709;-76
2023/07/24 04:02:29;;;;;;;10.15;2.88;;;;;;;17.69;100.00;99697.22;4954040;28;20225;-76
2023/07/24 04:04:55;;;;;;;14.23;3.65;;;;;;;17.57;100.00;99706.47;4938268;28;20221;-78
2023/07/24 04:07:22;;;;;;;12.50;3.47;;;;;;;17.54;100.00;99717.25;4937800;28;20233;-76
2023/07/24 04:09:49;;;;;;;14.45;3.72;;;;;;;17.50;100.00;99722.75;4952868;28;20237;-76
2023/07/24 04:12:16;;;;;;;13.30;3.55;;;;;;;17.53;100.00;99730.66;4958672;28;20249;-76
2023/07/24 04:14:42;;;;;;;9.23;2.45;;;;;;;17.54;100.00;99745.78;4958457;28;20231;-76
2023/07/24 04:17:09;;;;;;;12.73;3.35;;;;;;;17.64;100.00;99744.59;4952945;28;20253;-76
2023/07/24 04:19:36;;;;;;;11.05;3.00;;;;;;;17.74;100.00;99750.56;4958031;28;20320;-76
2023/07/24 04:22:03;;;;;;;20.08;5.05;;;;;;;17.77;100.00;99758.47;4950851;28;20229;-76
2023/07/24 04:24:29;;;;;;;11.85;3.08;;;;;;;17.86;100.00;99768.91;4958977;28;20225;-76
2023/07/24 04:26:56;;;;;;;15.23;4.05;;;;;;;17.94;100.00;99764.19;4961545;28;20229;-77
2023/07/24 04:29:25;;;;;;;11.00;2.95;;;;;;;17.99;100.00;99766.72;4956524;28;20245;-75
2023/07/24 04:31:52;;;;;;;19.88;4.97;;;;;;;17.92;100.00;99758.88;4951427;28;20259;-75
2023/07/24 04:34:19;;;;;;;13.55;3.42;;;;;;;17.94;100.00;99757.94;4960265;28;20237;-75
2023/07/24 04:36:45;;;;;;;8.65;2.22;;;;;;;17.95;100.00;99757.91;4958893;28;20225;-76
2023/07/24 04:39:12;;;;;;;11.85;3.03;;;;;;;18.00;100.00;99763.97;4962028;28;20720;-75
2023/07/24 04:41:39;;;;;;;12.20;3.05;;;;;;;18.10;100.00;99768.13;4945756;28;20325;-76
2023/07/24 04:44:05;;;;;;;14.55;3.85;;;;;;;18.09;100.00;99763.69;4956461;28;20245;-76
2023/07/24 04:46:32;;;;;;;14.07;3.45;;;;;;;18.07;100.00;99773.56;4961873;28;20229;-77
2023/07/24 04:49:00;;;;;;;16.90;3.90;;;;;;;18.08;100.00;99774.44;4961750;28;20225;-76
2023/07/24 04:51:26;;;;;;;11.23;2.83;;;;;;;18.07;100.00;99760.19;4960705;28;20225;-76
2023/07/24 04:53:54;;;;;;;31.42;6.65;;;;;;;18.11;100.00;99769.00;4956091;28;20229;-76
2023/07/24 04:56:20;;;;;;;12.57;3.20;;;;;;;18.13;100.00;99768.00;4953578;28;20694;-76
2023/07/24 04:58:47;;;;;;;10.65;2.75;;;;;;;18.08;100.00;99775.31;4960470;28;20229;-76
2023/07/24 05:01:14;;;;;;;12.60;3.13;;;;;;;18.16;100.00;99781.31;4962360;28;20229;-77
2023/07/24 05:03:41;;;;;;;9.57;2.40;;;;;;;18.17;100.00;99777.69;4961164;28;20233;-77
2023/07/24 05:06:08;;;;;;;15.43;3.95;;;;;;;18.26;100.00;99783.72;4955570;28;20256;-77
2023/07/24 05:08:35;;;;;;;12.00;2.95;;;;;;;18.27;100.00;99769.41;4958730;28;20256;-77
2023/07/24 05:11:01;;;;;;;42.70;9.23;;;;;;;18.29;100.00;99772.91;4931914;28;20240;-76
2023/07/24 05:13:28;;;;;;;14.05;3.50;;;;;;;18.32;100.00;99778.16;4941222;28;20232;-77
2023/07/24 05:15:55;;;;;;;19.40;5.07;;;;;;;18.33;100.00;99782.59;4956841;28;20225;-77
2023/07/24 05:18:22;;;;;;;9.52;2.40;;;;;;;18.36;100.00;99785.16;4962385;28;20237;-77
2023/07/24 05:20:51;;;;;;;14.52;3.70;;;;;;;18.41;100.00;99793.91;4957421;28;20287;-77
2023/07/24 05:23:18;;;;;;;12.55;3.10;;;;;;;18.45;100.00;99806.28;4958166;28;20264;-77
2023/07/24 05:25:45;;;;;;;9.07;2.22;;;;;;;18.44;100.00;99804.50;4964279;28;20225;-76
2023/07/24 05:28:12;;;;;;;12.80;3.00;;;;;;;18.48;100.00;99808.84;4961673;28;20229;-77
2023/07/24 05:30:38;;;;;;;13.48;3.22;;;;;;;18.48;100.00;99800.81;4961543;28;20312;-76
2023/07/24 05:33:05;;;;;;;9.70;2.53;;;;;;;18.55;100.00;99799.69;4937183;28;20386;-77
2023/07/24 05:35:32;;;;;;;9.20;2.42;;;;;;;18.57;100.00;99796.94;4959626;28;20236;-76
2023/07/24 05:37:59;;;;;;;23.38;5.80;;;;;;;18.65;100.00;99793.13;4957153;28;20221;-76
2023/07/24 05:40:25;;;;;;;10.30;2.65;;;;;;;18.65;100.00;99801.16;4963437;28;20232;-75
2023/07/24 05:42:52;;;;;;;19.85;4.97;;;;;;;18.68;100.00;99808.22;4952499;28;20244;-76
2023/07/24 05:45:19;;;;;;;10.23;2.55;;;;;;;18.66;100.00;99802.91;4957643;28;20239;-77
2023/07/24 05:47:46;;;;;;;9.02;2.55;;;;;;;18.71;100.00;99792.03;4953576;28;20677;-78
2023/07/24 05:50:13;;;;;;;15.23;4.00;;;;;;;18.73;100.00;99779.47;4957372;28;20672;-76
2023/07/24 05:52:40;;;;;;;10.13;2.50;;;;;;;18.71;100.00;99765.25;4938912;28;20256;-77
2023/07/24 05:55:08;;;;;;;9.57;2.53;;;;;;;18.80;100.00;99760.44;4960858;28;20266;-76
2023/07/24 05:57:35;;;;;;;10.20;2.50;;;;;;;18.81;100.00;99758.63;4968865;28;20228;-77
2023/07/24 06:00:03;;;;;;;19.35;4.90;;;;;;;18.82;100.00;99761.25;4957351;28;20289;-76
2023/07/24 06:02:30;;;;;;;8.98;2.25;;;;;;;18.82;100.00;99745.19;4961489;28;20721;-76
2023/07/24 06:04:57;;;;;;;16.05;3.88;;;;;;;18.80;100.00;99747.06;4956068;28;20321;-76
2023/07/24 06:07:24;;;;;;;10.13;2.45;;;;;;;18.92;100.00;99751.09;4944520;28;20225;-76
2023/07/24 06:09:51;;;;;;;21.42;5.53;;;;;;;18.93;100.00;99747.50;4940000;28;20237;-76
2023/07/24 06:12:17;;;;;;;9.77;2.42;;;;;;;19.07;100.00;99737.13;4959052;28;20237;-77
2023/07/24 06:14:45;;;;;;;9.25;2.38;;;;;;;19.05;100.00;99717.56;4940250;28;20229;-77
2023/07/24 06:17:11;;;;;;;8.38;2.20;;;;;;;19.14;100.00;99711.00;4956010;28;20233;-77
2023/07/24 06:19:38;;;;;;;7.47;2.03;;;;;;;19.24;100.00;99723.09;4959722;28;20235;-77
2023/07/24 06:22:05;;;;;;;11.32;2.90;;;;;;;19.24;100.00;99711.50;4951466;28;20604;-76
2023/07/24 06:24:31;;;;;;;8.40;2.22;;;;;;;19.26;100.00;99709.66;4961494;28;20233;-77
2023/07/24 06:26:58;;;;;;;22.33;5.43;;;;;;;19.25;100.00;99711.47;4955677;28;20229;-77
2023/07/24 06:29:25;;;;;;;10.82;2.78;;;;;;;19.29;100.00;99688.97;4960569;28;20238;-76
2023/07/24 06:31:52;;;;;;;16.23;4.50;;;;;;;19.31;100.00;99688.91;4955139;28;20247;-77
2023/07/24 06:34:19;;;;;;;9.63;2.50;;;;;;;19.31;100.00;99696.94;4958822;28;20229;-76
2023/07/24 06:36:46;;;;;;;14.38;3.50;;;;;;;19.36;100.00;99687.78;4958447;28;21056;-76
2023/07/24 06:39:12;;;;;;;10.10;2.47;;;;;;;19.47;100.00;99690.94;4953480;28;20243;-77
2023/07/24 06:41:39;;;;;;;13.07;3.38;;;;;;;19.59;100.00;99712.91;4968384;28;20224;-77
2023/07/24 06:44:06;;;;;;;18.75;5.03;;;;;;;19.75;100.00;99722.97;4933761;28;20244;-77
2023/07/24 06:46:32;;;;;;;9.02;2.45;;;;;;;19.93;100.00;99715.09;4957740;28;20236;-78
2023/07/24 06:48:59;;;;;;;26.25;6.55;;;;;;;20.06;100.00;99725.28;4956500;28;20237;-78
2023/07/24 06:51:26;;;;;;;12.27;3.00;;;;;;;20.11;100.00;99706.31;4963692;28;20225;-78
2023/07/24 06:53:52;;;;;;;22.05;5.63;;;;;;;20.26;100.00;99691.38;4957558;28;20603;-79
2023/07/24 06:56:19;;;;;;;12.43;3.40;;;;;;;20.48;100.00;99689.53;4941177;28;20235;-78
2023/07/24 06:58:46;;;;;;;17.77;4.55;;;;;;;20.59;100.00;99662.22;4953353;28;20240;-77
2023/07/24 07:01:13;;;;;;;15.52;3.83;;;;;;;20.60;100.00;99637.97;4953649;28;20237;-78
2023/07/24 07:03:39;;;;;;;8.38;2.25;;;;;;;20.60;100.00;99634.41;4960372;28;20254;-78
2023/07/24 07:06:06;;;;;;;15.50;3.72;;;;;;;20.84;100.00;99648.56;4956342;28;20288;-78
2023/07/24 07:08:33;;;;;;;10.80;2.60;;;;;;;21.05;100.00;99647.59;4964580;28;20236;-77
2023/07/24 07:11:00;;;;;;;41.55;8.57;;;;;;;21.12;100.00;99624.84;4954262;28;20220;-78
2023/07/24 07:13:27;;;;;;;12.80;3.13;;;;;;;21.44;100.00;99631.44;4959169;28;20318;-78
2023/07/24 07:15:54;;;;;;;53.67;10.18;;;;;;;21.55;100.00;99601.31;4956510;28;20217;-78
2023/07/24 07:18:21;;;;;;;17.00;4.35;;;;;;;21.56;100.00;99584.22;4952041;28;20279;-77
2023/07/24 07:20:49;;;;;;;24.13;5.38;;;;;;;21.68;100.00;99570.16;4947587;28;20221;-77
2023/07/24 07:23:16;;;;;;;19.48;5.15;;;;;;;21.88;100.00;99575.41;4955054;28;20260;-77
2023/07/24 07:25:44;;;;;;;14.40;3.67;;;;;;;21.83;100.00;99569.38;4956222;28;20221;-78
2023/07/24 07:28:15;;;;;;;22.17;5.75;;;;;;;21.98;100.00;99570.41;4951331;28;20626;-77
2023/07/24 07:30:43;;;;;;;13.35;3.45;;;;;;;22.04;100.00;99571.00;4960252;28;20565;-77
2023/07/24 07:33:11;;;;;;;19.02;4.80;;;;;;;22.17;100.00;99565.88;4953954;28;20236;-78
2023/07/24 07:35:38;;;;;;;9.60;2.50;;;;;;;22.28;100.00;99552.72;4957204;28;20225;-78
2023/07/24 07:38:05;;;;;;;18.48;5.15;;;;;;;22.44;100.00;99550.09;4956313;28;20236;-77
2023/07/24 07:40:32;;;;;;;10.25;2.67;;;;;;;22.40;100.00;99526.97;4943359;28;20585;-78
2023/07/24 07:42:58;;;;;;;25.02;6.45;;;;;;;22.46;100.00;99526.63;4956566;28;20235;-77
2023/07/24 07:45:25;;;;;;;9.32;2.45;;;;;;;22.67;100.00;99522.75;4961208;28;20238;-77
2023/07/24 07:47:53;;;;;;;61.80;11.85;;;;;;;22.84;100.00;99531.78;5068805;23;20247;-89
2023/07/24 07:50:20;;;;;;;11.13;2.80;;;;;;;22.86;100.00;99517.25;4986876;28;20235;-88
2023/07/24 07:52:50;;;;;;;12.55;3.08;;;;;;;22.93;100.00;99502.47;4948459;28;20231;-88
2023/07/24 07:55:20;;;;;;;14.77;3.83;;;;;;;22.93;100.00;99486.28;4958766;28;20240;-88
2023/07/24 07:57:47;;;;;;;11.63;3.13;;;;;;;22.96;100.00;99482.56;4960359;28;20221;-89
2023/07/24 08:00:14;;;;;;;14.88;4.07;;;;;;;23.03;100.00;99470.47;4945719;28;20307;-89
2023/07/24 08:05:37;;;;;;;15.32;4.10;;;;;;;23.23;100.00;99458.53;5281342;23;20227;-76
2023/07/24 08:08:04;;;;;;;33.80;6.55;;;;;;;23.22;100.00;99448.69;4973080;28;20219;-76
2023/07/24 08:10:31;;;;;;;7.05;1.98;;;;;;;23.42;100.00;99437.63;4982415;28;20236;-76
2023/07/24 08:12:58;;;;;;;45.83;7.93;;;;;;;23.52;100.00;99422.63;4964015;28;20251;-77
2023/07/24 08:15:24;;;;;;;10.23;2.70;;;;;;;23.64;100.00;99402.16;4953622;28;20304;-78
2023/07/24 08:17:51;;;;;;;84.15;15.57;;;;;;;23.68;100.00;99387.50;5062452;23;20199;-89
2023/07/24 08:20:18;;;;;;;13.32;3.55;;;;;;;23.83;100.00;99394.66;4980124;28;20306;-89
2023/07/24 08:22:45;;;;;;;11.45;3.17;;;;;;;23.98;100.00;99373.94;4979487;28;20246;-88
2023/07/24 08:25:12;;;;;;;12.38;3.47;;;;;;;24.20;100.00;99365.34;4965323;28;20264;-89
2023/07/24 08:27:38;;;;;;;9.50;2.83;;;;;;;24.41;100.00;99353.19;4958586;28;20220;-87
2023/07/24 08:30:25;;;;;;;10.88;3.72;;;;;;;24.43;100.00;99340.44;4961138;28;20239;-89
2023/07/24 08:32:53;;;;;;;42.90;8.48;;;;;;;24.41;100.00;99306.38;4956123;28;20335;-86
2023/07/24 08:35:20;;;;;;;14.82;4.28;;;;;;;24.56;100.00;99319.75;4958114;28;20263;-86
2023/07/24 08:37:46;;;;;;;10.30;3.08;;;;;;;24.84;100.00;99331.47;4955753;28;20236;-85
2023/07/24 08:40:15;;;;;;;10.90;3.35;;;;;;;24.94;100.00;99313.63;4958661;28;20233;-87
2023/07/24 08:42:47;;;;;;;11.15;3.33;;;;;;;24.76;100.00;99274.31;4958936;28;20683;-87
2023/07/24 08:45:15;;;;;;;12.40;4.47;;;;;;;24.63;100.00;99247.22;4952256;28;20239;-88
2023/07/24 08:47:46;;;;;;;10.50;3.20;;;;;;;24.55;100.00;99234.22;4959897;28;20233;-87
2023/07/24 08:50:15;;;;;;;14.93;4.60;;;;;;;24.51;100.00;99231.81;4953467;28;20224;-85
2023/07/24 08:52:43;;;;;;;9.82;3.00;;;;;;;24.47;100.00;99233.00;4952887;28;20229;-86
2023/07/24 08:55:10;;;;;;;6.43;2.15;;;;;;;24.47;100.00;99219.50;4953392;28;20293;-89
2023/07/24 08:57:38;;;;;;;7.55;2.42;;;;;;;24.62;100.00;99220.28;4961232;28;20267;-88
2023/07/24 09:00:05;;;;;;;46.33;9.55;;;;;;;24.67;100.00;99207.34;4954212;28;20225;-87
2023/07/24 09:02:33;;;;;;;12.45;4.70;;;;;;;24.78;100.00;99193.97;4953157;28;20355;-86
2023/07/24 09:05:01;;;;;;;49.80;10.70;;;;;;;25.09;100.00;99192.75;4948379;28;20324;-88
2023/07/24 09:07:29;;;;;;;10.77;3.45;;;;;;;25.50;100.00;99196.06;4952647;28;20242;-90
2023/07/24 09:09:56;;;;;;;45.83;9.63;;;;;;;25.90;100.00;99143.59;4954879;28;20232;-87
2023/07/24 09:12:24;;;;;;;12.35;3.72;;;;;;;26.21;100.00;99132.19;4958291;28;20248;-88
2023/07/24 09:15:02;;;;;;;30.27;6.35;;;;;;;26.39;100.00;99090.16;4956590;28;20247;-86
2023/07/24 09:17:29;;;;;;;8.98;2.83;;;;;;;26.01;100.00;99002.81;4964662;28;20228;-84
2023/07/24 09:20:01;;;;;;;51.40;11.50;;;;;;;26.12;100.00;99048.91;4955015;28;20283;-84
2023/07/24 09:22:28;;;;;;;7.28;2.40;;;;;;;25.59;100.00;98983.38;4964419;28;20228;-85
2023/07/24 09:24:56;;;;;;;50.50;10.30;;;;;;;25.41;100.00;98933.34;4949983;28;20589;-88
2023/07/24 09:27:28;;;;;;;8.50;2.55;;;;;;;25.59;100.00;98966.28;4964235;28;20236;-87
2023/07/24 09:29:58;;;;;;;50.00;9.50;;;;;;;25.59;100.00;98975.25;4959481;28;20256;-87
2023/07/24 09:32:26;;;;;;;8.30;2.50;;;;;;;25.41;100.00;98911.69;4961633;28;20228;-84
2023/07/24 09:34:54;;;;;;;27.42;6.10;;;;;;;25.27;100.00;98883.00;4954165;28;20287;-87
2023/07/24 09:37:25;;;;;;;7.10;2.00;;;;;;;25.27;100.00;98874.00;4950636;28;20232;-86
2023/07/24 09:39:52;;;;;;;49.58;10.85;;;;;;;25.44;100.00;98892.53;4957010;28;20229;-86
2023/07/24 09:42:31;;;;;;;7.88;2.17;;;;;;;25.53;100.00;98881.00;4964888;28;20232;-84
2023/07/24 09:44:58;;;;;;;53.70;11.15;;;;;;;25.62;100.00;98920.88;4953926;28;20692;-86
2023/07/24 09:47:25;;;;;;;14.70;3.75;;;;;;;25.61;100.00;98904.75;4963404;28;20259;-87
2023/07/24 09:50:13;;;;;;;9.02;2.50;;;;;;;25.63;100.00;98884.72;4958108;28;20598;-89
2023/07/24 09:52:41;;;;;;;9.80;3.08;;;;;;;25.51;100.00;98861.31;4960610;28;20232;-86
2023/07/24 09:55:17;;;;;;;10.65;3.55;;;;;;;25.42;100.00;98816.88;4953993;28;20271;-87
2023/07/24 09:57:44;;;;;;;8.30;2.45;;;;;;;25.27;100.00;98834.28;4960493;28;20236;-81
2023/07/24 10:00:12;;;;;;;6.88;2.10;;;;;;;24.93;100.00;98798.09;4957563;28;20233;-86
2023/07/24 10:02:39;;;;;;;7.25;2.22;;;;;;;24.93;100.00;98789.97;4939688;28;20229;-84
2023/07/24 10:05:07;;;;;;;11.30;3.00;;;;;;;24.74;100.00;98768.03;4954156;28;20252;-84
2023/07/24 10:07:34;;;;;;;7.00;2.30;;;;;;;24.80;100.00;98786.47;4963710;28;20224;-87
2023/07/24 10:10:01;;;;;;;48.50;10.38;;;;;;;24.78;100.00;98818.19;4957560;28;20231;-85
2023/07/24 10:12:30;;;;;;;8.00;2.45;;;;;;;24.72;100.00;98792.47;4959030;28;20233;-84
2023/07/24 10:14:57;;;;;;;52.90;10.32;;;;;;;24.88;100.00;98733.56;4959793;28;20231;-84
2023/07/24 10:17:37;;;;;;;12.27;3.47;;;;;;;24.99;100.00;98732.75;4957673;28;20233;-85
2023/07/24 10:20:08;;;;;;;53.25;10.85;;;;;;;25.18;100.00;98732.19;4949120;28;20232;-85
2023/07/24 10:22:37;;;;;;;13.60;3.88;;;;;;;24.99;100.00;98700.31;4954156;28;20335;-83
2023/07/24 10:25:05;;;;;;;55.60;10.40;;;;;;;24.86;100.00;98658.94;4943276;28;20338;-83
2023/07/24 10:27:36;;;;;;;14.00;4.00;;;;;;;24.89;100.00;98675.78;4950172;28;20296;-83
2023/07/24 10:30:05;;;;;;;49.55;10.38;;;;;;;24.97;100.00;98704.06;4953776;28;20228;-87
2023/07/24 10:32:51;;;;;;;41.08;7.80;;;;;;;24.88;100.00;98700.25;4951245;28;20316;-83
2023/07/24 10:35:22;;;;;;;13.00;3.78;;;;;;;25.04;100.00;98710.78;4958381;28;20282;-87
2023/07/24 10:37:59;;;;;;;31.45;7.25;;;;;;;25.03;100.00;98674.75;4953981;28;20224;-83
2023/07/24 10:40:26;;;;;;;9.02;2.72;;;;;;;25.14;100.00;98733.41;4962313;28;20242;-82
2023/07/24 10:43:06;;;;;;;43.05;9.98;;;;;;;25.36;100.00;98728.06;4958985;28;20230;-86
2023/07/24 10:45:42;;;;;;;9.93;2.92;;;;;;;25.45;100.00;98786.88;4963195;28;20232;-85
2023/07/24 10:48:11;;;;;;;10.55;3.30;;;;;;;25.26;100.00;98835.28;4955205;28;20246;-89
2023/07/24 10:50:44;;;;;;;9.27;2.83;;;;;;;25.25;100.00;98879.53;4958974;28;20315;-86
2023/07/24 10:53:13;;;;;;;10.88;3.33;;;;;;;25.58;100.00;98903.16;4954340;28;20304;-88
2023/07/24 10:55:40;;;;;;;9.77;3.08;;;;;;;25.14;100.00;98874.06;4960843;28;20698;-86
2023/07/24 10:58:07;;;;;;;13.88;4.07;;;;;;;25.24;100.00;98879.66;4954916;28;20591;-85
2023/07/24 11:00:34;;;;;;;10.68;3.38;;;;;;;25.19;100.00;98883.56;4956972;28;20232;-86
2023/07/24 11:03:01;;;;;;;49.97;12.73;;;;;;;25.20;100.00;98871.78;4956645;28;20224;-88
2023/07/24 11:05:28;;;;;;;8.88;2.88;;;;;;;25.25;100.00;98870.56;4958307;28;20270;-83
2023/07/24 11:07:55;;;;;;;46.85;9.88;;;;;;;25.48;100.00;98881.34;4951389;28;20616;-87
2023/07/24 11:10:22;;;;;;;9.77;3.17;;;;;;;25.33;100.00;98884.38;4948691;28;20224;-85
2023/07/24 11:12:53;;;;;;;21.50;4.93;;;;;;;25.37;100.00;98875.91;4950022;28;20224;-87
2023/07/24 11:15:25;;;;;;;9.90;3.17;;;;;;;25.28;100.00;98882.00;4958280;28;20224;-85
2023/07/24 11:17:52;;;;;;;48.10;10.07;;;;;;;25.19;100.00;98864.63;4953594;28;20228;-86
2023/07/24 11:20:19;;;;;;;9.52;2.95;;;;;;;25.28;100.00;98870.31;4962415;28;20302;-85
2023/07/24 11:22:46;;;;;;;9.63;2.70;;;;;;;25.23;100.00;98891.44;4955324;28;20572;-83
2023/07/24 11:25:13;;;;;;;8.25;2.53;;;;;;;25.23;100.00;98903.13;4956947;28;20244;-85